sensor_id;sensor_type;location;lat;lon;timestamp;temperature;humidity
53752;DHT22;41095;53.090;6.692;2022-07-22T00:01:18;16.30;99.90
53752;DHT22;41095;53.090;6.692;2022-07-22T00:03:45;16.30;99.90
53752;DHT22;41095;53.090;6.692;2022-07-22T00:06:11;16.30;99.90
53752;DHT22;41095;53.090;6.692;2022-07-22T00:08:37;16.40;99.90
53752;DHT22;41095;53.090;6.692;2022-07-22T00:11:03;16.40;99.90
53752;DHT22;41095;53.090;6.692;2022-07-22T00:13:29;16.50;99.90
53752;DHT22;41095;53.090;6.692;2022-07-22T00:15:55;16.50;99.90
53752;DHT22;41095;53.090;6.692;2022-07-22T00:18:21;16.60;99.90
53752;DHT22;41095;53.090;6.692;2022-07-22T00:20:46;16.60;99.90
53752;DHT22;41095;53.090;6.692;2022-07-22T00:23:12;16.60;99.90
53752;DHT22;41095;53.090;6.692;2022-07-22T00:25:38;16.60;99.90
53752;DHT22;41095;53.090;6.692;2022-07-22T00:28:03;16.60;99.90
53752;DHT22;41095;53.090;6.692;2022-07-22T00:30:29;16.60;99.90
53752;DHT22;41095;53.090;6.692;2022-07-22T00:32:55;16.60;99.90
53752;DHT22;41095;53.090;6.692;2022-07-22T00:35:21;16.60;99.90
53752;DHT22;41095;53.090;6.692;2022-07-22T00:37:46;16.60;99.90
53752;DHT22;41095;53.090;6.692;2022-07-22T00:40:12;16.60;99.90
53752;DHT22;41095;53.090;6.692;2022-07-22T00:42:38;16.70;99.90
53752;DHT22;41095;53.090;6.692;2022-07-22T00:45:04;16.70;99.90
53752;DHT22;41095;53.090;6.692;2022-07-22T00:47:30;16.70;99.90
53752;DHT22;41095;53.090;6.692;2022-07-22T00:49:56;16.70;99.90
53752;DHT22;41095;53.090;6.692;2022-07-22T00:52:22;16.70;99.90
53752;DHT22;41095;53.090;6.692;2022-07-22T00:54:49;16.80;99.90
53752;DHT22;41095;53.090;6.692;2022-07-22T00:57:15;16.70;99.90
53752;DHT22;41095;53.090;6.692;2022-07-22T00:59:41;16.70;99.90
53752;DHT22;41095;53.090;6.692;2022-07-22T01:02:08;16.70;99.90
53752;DHT22;41095;53.090;6.692;2022-07-22T01:04:33;16.70;99.90
53752;DHT22;41095;53.090;6.692;2022-07-22T01:06:59;16.70;99.90
53752;DHT22;41095;53.090;6.692;2022-07-22T01:09:25;16.70;99.90
53752;DHT22;41095;53.090;6.692;2022-07-22T01:11:50;16.60;99.90
53752;DHT22;41095;53.090;6.692;2022-07-22T01:14:16;16.60;99.90
53752;DHT22;41095;53.090;6.692;2022-07-22T01:16:42;16.60;99.90
53752;DHT22;41095;53.090;6.692;2022-07-22T01:19:07;16.60;99.90
53752;DHT22;41095;53.090;6.692;2022-07-22T01:21:33;16.60;99.90
53752;DHT22;41095;53.090;6.692;2022-07-22T01:23:59;16.60;99.90
53752;DHT22;41095;53.090;6.692;2022-07-22T01:26:25;16.60;99.90
53752;DHT22;41095;53.090;6.692;2022-07-22T01:28:51;16.60;99.90
53752;DHT22;41095;53.090;6.692;2022-07-22T01:31:16;16.50;99.90
53752;DHT22;41095;53.090;6.692;2022-07-22T01:33:42;16.60;99.90
53752;DHT22;41095;53.090;6.692;2022-07-22T01:36:08;16.60;99.90
53752;DHT22;41095;53.090;6.692;2022-07-22T01:38:34;16.50;99.90
53752;DHT22;41095;53.090;6.692;2022-07-22T01:40:59;16.50;99.90
53752;DHT22;41095;53.090;6.692;2022-07-22T01:43:25;16.50;99.90
53752;DHT22;41095;53.090;6.692;2022-07-22T01:45:52;16.50;99.90
53752;DHT22;41095;53.090;6.692;2022-07-22T01:48:19;16.60;99.90
53752;DHT22;41095;53.090;6.692;2022-07-22T01:50:45;16.60;99.90
53752;DHT22;41095;53.090;6.692;2022-07-22T01:53:11;16.60;99.90
53752;DHT22;41095;53.090;6.692;2022-07-22T01:55:37;16.60;99.90
53752;DHT22;41095;53.090;6.692;2022-07-22T01:58:03;16.60;99.90
53752;DHT22;41095;53.090;6.692;2022-07-22T02:00:33;16.50;99.90
53752;DHT22;41095;53.090;6.692;2022-07-22T02:02:59;16.60;99.90
53752;DHT22;41095;53.090;6.692;2022-07-22T02:05:24;16.60;99.90
53752;DHT22;41095;53.090;6.692;2022-07-22T02:07:50;16.60;99.90
53752;DHT22;41095;53.090;6.692;2022-07-22T02:10:17;16.60;99.90
53752;DHT22;41095;53.090;6.692;2022-07-22T02:12:42;16.60;99.90
53752;DHT22;41095;53.090;6.692;2022-07-22T02:15:08;16.60;99.90
53752;DHT22;41095;53.090;6.692;2022-07-22T02:17:35;16.60;99.90
53752;DHT22;41095;53.090;6.692;2022-07-22T02:20:01;16.60;99.90
53752;DHT22;41095;53.090;6.692;2022-07-22T02:22:28;16.60;99.90
53752;DHT22;41095;53.090;6.692;2022-07-22T02:24:53;16.50;99.90
53752;DHT22;41095;53.090;6.692;2022-07-22T02:27:19;16.50;99.90
53752;DHT22;41095;53.090;6.692;2022-07-22T02:29:45;16.50;99.90
53752;DHT22;41095;53.090;6.692;2022-07-22T02:32:11;16.50;99.90
53752;DHT22;41095;53.090;6.692;2022-07-22T02:34:36;16.50;99.90
53752;DHT22;41095;53.090;6.692;2022-07-22T02:37:02;16.40;99.90
53752;DHT22;41095;53.090;6.692;2022-07-22T02:39:28;16.50;99.90
53752;DHT22;41095;53.090;6.692;2022-07-22T02:41:54;16.50;99.90
53752;DHT22;41095;53.090;6.692;2022-07-22T02:44:20;16.50;99.90
53752;DHT22;41095;53.090;6.692;2022-07-22T02:46:46;16.50;99.90
53752;DHT22;41095;53.090;6.692;2022-07-22T02:49:12;16.50;99.90
53752;DHT22;41095;53.090;6.692;2022-07-22T02:51:37;16.40;99.90
53752;DHT22;41095;53.090;6.692;2022-07-22T02:54:03;16.40;99.90
53752;DHT22;41095;53.090;6.692;2022-07-22T02:56:29;16.40;99.90
53752;DHT22;41095;53.090;6.692;2022-07-22T02:58:55;16.50;99.90
53752;DHT22;41095;53.090;6.692;2022-07-22T03:01:20;16.40;99.90
53752;DHT22;41095;53.090;6.692;2022-07-22T03:03:46;16.40;99.90
53752;DHT22;41095;53.090;6.692;2022-07-22T03:06:12;16.40;99.90
53752;DHT22;41095;53.090;6.692;2022-07-22T03:08:38;16.40;99.90
53752;DHT22;41095;53.090;6.692;2022-07-22T03:11:05;16.40;99.90
53752;DHT22;41095;53.090;6.692;2022-07-22T03:13:31;16.40;99.90
53752;DHT22;41095;53.090;6.692;2022-07-22T03:15:56;16.40;99.90
53752;DHT22;41095;53.090;6.692;2022-07-22T03:18:22;16.40;99.90
53752;DHT22;41095;53.090;6.692;2022-07-22T03:20:48;16.40;99.90
53752;DHT22;41095;53.090;6.692;2022-07-22T03:23:14;16.40;99.90
53752;DHT22;41095;53.090;6.692;2022-07-22T03:25:39;16.40;99.90
53752;DHT22;41095;53.090;6.692;2022-07-22T03:28:06;16.40;99.90
53752;DHT22;41095;53.090;6.692;2022-07-22T03:30:32;16.40;99.90
53752;DHT22;41095;53.090;6.692;2022-07-22T03:32:57;16.40;99.90
53752;DHT22;41095;53.090;6.692;2022-07-22T03:35:23;16.40;99.90
53752;DHT22;41095;53.090;6.692;2022-07-22T03:37:49;16.30;99.90
53752;DHT22;41095;53.090;6.692;2022-07-22T03:40:15;16.40;99.90
53752;DHT22;41095;53.090;6.692;2022-07-22T03:42:41;16.40;99.90
53752;DHT22;41095;53.090;6.692;2022-07-22T03:45:08;16.30;99.90
53752;DHT22;41095;53.090;6.692;2022-07-22T03:47:35;16.30;99.90
53752;DHT22;41095;53.090;6.692;2022-07-22T03:50:00;16.30;99.90
53752;DHT22;41095;53.090;6.692;2022-07-22T03:52:30;16.30;99.90
53752;DHT22;41095;53.090;6.692;2022-07-22T03:54:56;16.30;99.90
53752;DHT22;41095;53.090;6.692;2022-07-22T03:57:21;16.30;99.90
53752;DHT22;41095;53.090;6.692;2022-07-22T03:59:47;16.30;99.90
53752;DHT22;41095;53.090;6.692;2022-07-22T04:02:13;16.30;99.90
53752;DHT22;41095;53.090;6.692;2022-07-22T04:04:39;16.30;99.90
53752;DHT22;41095;53.090;6.692;2022-07-22T04:07:04;16.30;99.90
53752;DHT22;41095;53.090;6.692;2022-07-22T04:09:30;16.20;99.90
53752;DHT22;41095;53.090;6.692;2022-07-22T04:11:56;16.30;99.90
53752;DHT22;41095;53.090;6.692;2022-07-22T04:14:22;16.30;99.90
53752;DHT22;41095;53.090;6.692;2022-07-22T04:16:47;16.30;99.90
53752;DHT22;41095;53.090;6.692;2022-07-22T04:19:13;16.30;99.90
53752;DHT22;41095;53.090;6.692;2022-07-22T04:21:39;16.30;99.90
53752;DHT22;41095;53.090;6.692;2022-07-22T04:24:05;16.30;99.90
53752;DHT22;41095;53.090;6.692;2022-07-22T04:26:31;16.40;99.90
53752;DHT22;41095;53.090;6.692;2022-07-22T04:28:57;16.40;99.90
53752;DHT22;41095;53.090;6.692;2022-07-22T04:31:23;16.40;99.90
53752;DHT22;41095;53.090;6.692;2022-07-22T04:33:49;16.40;99.90
53752;DHT22;41095;53.090;6.692;2022-07-22T04:36:14;16.40;99.90
53752;DHT22;41095;53.090;6.692;2022-07-22T04:38:40;16.40;99.90
53752;DHT22;41095;53.090;6.692;2022-07-22T04:41:06;16.50;99.90
53752;DHT22;41095;53.090;6.692;2022-07-22T04:43:32;16.50;99.90
53752;DHT22;41095;53.090;6.692;2022-07-22T04:45:58;16.50;99.90
53752;DHT22;41095;53.090;6.692;2022-07-22T04:48:24;16.50;99.90
53752;DHT22;41095;53.090;6.692;2022-07-22T04:50:49;16.50;99.90
53752;DHT22;41095;53.090;6.692;2022-07-22T04:53:15;16.50;99.90
53752;DHT22;41095;53.090;6.692;2022-07-22T04:55:41;16.60;99.90
53752;DHT22;41095;53.090;6.692;2022-07-22T04:58:07;16.60;99.90
53752;DHT22;41095;53.090;6.692;2022-07-22T05:00:32;16.60;99.90
53752;DHT22;41095;53.090;6.692;2022-07-22T05:02:58;16.60;99.90
53752;DHT22;41095;53.090;6.692;2022-07-22T05:05:24;16.50;99.90
53752;DHT22;41095;53.090;6.692;2022-07-22T05:07:50;16.60;99.90
53752;DHT22;41095;53.090;6.692;2022-07-22T05:10:16;16.60;99.90
53752;DHT22;41095;53.090;6.692;2022-07-22T05:12:43;16.60;99.90
53752;DHT22;41095;53.090;6.692;2022-07-22T05:15:09;16.70;99.90
53752;DHT22;41095;53.090;6.692;2022-07-22T05:17:34;16.70;99.90
53752;DHT22;41095;53.090;6.692;2022-07-22T05:20:04;16.70;99.90
53752;DHT22;41095;53.090;6.692;2022-07-22T05:22:30;16.80;99.90
53752;DHT22;41095;53.090;6.692;2022-07-22T05:24:56;16.40;99.90
53752;DHT22;41095;53.090;6.692;2022-07-22T05:27:22;16.80;99.90
53752;DHT22;41095;53.090;6.692;2022-07-22T05:29:47;16.80;99.90
53752;DHT22;41095;53.090;6.692;2022-07-22T05:32:14;16.80;99.90
53752;DHT22;41095;53.090;6.692;2022-07-22T05:34:39;16.80;99.90
53752;DHT22;41095;53.090;6.692;2022-07-22T05:37:05;16.80;99.90
53752;DHT22;41095;53.090;6.692;2022-07-22T05:39:31;16.90;99.90
53752;DHT22;41095;53.090;6.692;2022-07-22T05:41:56;16.90;99.90
53752;DHT22;41095;53.090;6.692;2022-07-22T05:44:22;16.90;99.90
53752;DHT22;41095;53.090;6.692;2022-07-22T05:46:48;17.00;99.90
53752;DHT22;41095;53.090;6.692;2022-07-22T05:49:13;17.10;99.90
53752;DHT22;41095;53.090;6.692;2022-07-22T05:51:39;17.10;99.90
53752;DHT22;41095;53.090;6.692;2022-07-22T05:54:05;17.10;99.90
53752;DHT22;41095;53.090;6.692;2022-07-22T05:56:30;17.20;99.90
53752;DHT22;41095;53.090;6.692;2022-07-22T05:58:56;17.30;99.90
53752;DHT22;41095;53.090;6.692;2022-07-22T06:01:22;17.30;99.90
53752;DHT22;41095;53.090;6.692;2022-07-22T06:03:48;17.30;99.90
53752;DHT22;41095;53.090;6.692;2022-07-22T06:06:14;17.40;99.90
53752;DHT22;41095;53.090;6.692;2022-07-22T06:08:39;17.40;99.90
53752;DHT22;41095;53.090;6.692;2022-07-22T06:11:05;17.50;99.90
53752;DHT22;41095;53.090;6.692;2022-07-22T06:13:32;17.50;99.90
53752;DHT22;41095;53.090;6.692;2022-07-22T06:15:58;17.60;99.90
53752;DHT22;41095;53.090;6.692;2022-07-22T06:18:24;17.60;99.90
53752;DHT22;41095;53.090;6.692;2022-07-22T06:20:50;17.60;99.90
53752;DHT22;41095;53.090;6.692;2022-07-22T06:23:16;17.60;99.90
53752;DHT22;41095;53.090;6.692;2022-07-22T06:25:42;17.60;99.90
53752;DHT22;41095;53.090;6.692;2022-07-22T06:28:08;17.60;99.90
53752;DHT22;41095;53.090;6.692;2022-07-22T06:30:33;17.70;99.90
53752;DHT22;41095;53.090;6.692;2022-07-22T06:32:59;17.60;99.90
53752;DHT22;41095;53.090;6.692;2022-07-22T06:35:25;17.70;99.90
53752;DHT22;41095;53.090;6.692;2022-07-22T06:37:52;17.80;99.90
53752;DHT22;41095;53.090;6.692;2022-07-22T06:40:17;17.80;99.90
53752;DHT22;41095;53.090;6.692;2022-07-22T06:42:44;17.80;99.90
53752;DHT22;41095;53.090;6.692;2022-07-22T06:45:10;17.90;99.90
53752;DHT22;41095;53.090;6.692;2022-07-22T06:47:36;17.80;99.90
53752;DHT22;41095;53.090;6.692;2022-07-22T06:50:06;17.90;99.90
53752;DHT22;41095;53.090;6.692;2022-07-22T06:52:33;18.00;99.90
53752;DHT22;41095;53.090;6.692;2022-07-22T06:54:59;18.00;99.90
53752;DHT22;41095;53.090;6.692;2022-07-22T06:57:24;18.00;99.90
53752;DHT22;41095;53.090;6.692;2022-07-22T06:59:50;18.10;99.90
53752;DHT22;41095;53.090;6.692;2022-07-22T07:02:16;18.10;99.90
53752;DHT22;41095;53.090;6.692;2022-07-22T07:04:42;18.20;99.90
53752;DHT22;41095;53.090;6.692;2022-07-22T07:07:08;18.20;99.90
53752;DHT22;41095;53.090;6.692;2022-07-22T07:09:34;18.30;99.90
53752;DHT22;41095;53.090;6.692;2022-07-22T07:12:00;18.40;99.90
53752;DHT22;41095;53.090;6.692;2022-07-22T07:14:26;18.30;99.90
53752;DHT22;41095;53.090;6.692;2022-07-22T07:16:52;18.40;99.90
53752;DHT22;41095;53.090;6.692;2022-07-22T07:19:18;18.50;99.90
53752;DHT22;41095;53.090;6.692;2022-07-22T07:21:45;18.50;99.90
53752;DHT22;41095;53.090;6.692;2022-07-22T07:24:11;18.60;99.90
53752;DHT22;41095;53.090;6.692;2022-07-22T07:26:37;18.70;99.90
53752;DHT22;41095;53.090;6.692;2022-07-22T07:29:03;18.70;99.90
53752;DHT22;41095;53.090;6.692;2022-07-22T07:31:29;18.80;99.90
53752;DHT22;41095;53.090;6.692;2022-07-22T07:33:55;18.70;99.90
53752;DHT22;41095;53.090;6.692;2022-07-22T07:36:21;18.70;99.90
53752;DHT22;41095;53.090;6.692;2022-07-22T07:38:48;18.80;99.90
53752;DHT22;41095;53.090;6.692;2022-07-22T07:41:14;18.90;99.90
53752;DHT22;41095;53.090;6.692;2022-07-22T07:43:40;19.00;99.90
53752;DHT22;41095;53.090;6.692;2022-07-22T07:46:05;19.10;99.90
53752;DHT22;41095;53.090;6.692;2022-07-22T07:48:31;19.00;99.90
53752;DHT22;41095;53.090;6.692;2022-07-22T07:50:57;19.10;99.90
53752;DHT22;41095;53.090;6.692;2022-07-22T07:53:23;19.10;99.90
53752;DHT22;41095;53.090;6.692;2022-07-22T07:55:49;19.10;99.90
53752;DHT22;41095;53.090;6.692;2022-07-22T07:58:14;19.10;99.90
53752;DHT22;41095;53.090;6.692;2022-07-22T08:00:40;19.20;99.90
53752;DHT22;41095;53.090;6.692;2022-07-22T08:03:08;19.20;99.90
53752;DHT22;41095;53.090;6.692;2022-07-22T08:05:34;19.20;99.90
53752;DHT22;41095;53.090;6.692;2022-07-22T08:08:00;19.20;99.90
53752;DHT22;41095;53.090;6.692;2022-07-22T08:10:26;19.20;99.90
53752;DHT22;41095;53.090;6.692;2022-07-22T08:12:53;19.20;99.90
53752;DHT22;41095;53.090;6.692;2022-07-22T08:15:21;19.30;99.90
53752;DHT22;41095;53.090;6.692;2022-07-22T08:17:46;19.40;99.90
53752;DHT22;41095;53.090;6.692;2022-07-22T08:20:12;19.50;99.90
53752;DHT22;41095;53.090;6.692;2022-07-22T08:22:38;19.40;99.90
53752;DHT22;41095;53.090;6.692;2022-07-22T08:25:04;19.40;99.90
53752;DHT22;41095;53.090;6.692;2022-07-22T08:27:30;19.50;99.90
53752;DHT22;41095;53.090;6.692;2022-07-22T08:29:55;19.50;99.90
53752;DHT22;41095;53.090;6.692;2022-07-22T08:32:21;19.60;99.90
53752;DHT22;41095;53.090;6.692;2022-07-22T08:34:47;19.50;99.90
53752;DHT22;41095;53.090;6.692;2022-07-22T08:37:13;19.50;99.90
53752;DHT22;41095;53.090;6.692;2022-07-22T08:39:38;19.50;99.90
53752;DHT22;41095;53.090;6.692;2022-07-22T08:42:04;19.40;99.90
53752;DHT22;41095;53.090;6.692;2022-07-22T08:44:31;19.40;99.90
53752;DHT22;41095;53.090;6.692;2022-07-22T08:46:59;19.50;99.90
53752;DHT22;41095;53.090;6.692;2022-07-22T08:49:25;19.50;99.90
53752;DHT22;41095;53.090;6.692;2022-07-22T08:51:51;19.50;99.90
53752;DHT22;41095;53.090;6.692;2022-07-22T08:54:16;19.30;99.90
53752;DHT22;41095;53.090;6.692;2022-07-22T08:56:46;19.20;99.90
53752;DHT22;41095;53.090;6.692;2022-07-22T08:59:12;19.20;99.90
53752;DHT22;41095;53.090;6.692;2022-07-22T09:04:31;19.20;99.90
53752;DHT22;41095;53.090;6.692;2022-07-22T09:06:58;19.20;99.90
53752;DHT22;41095;53.090;6.692;2022-07-22T09:09:32;19.30;99.90
53752;DHT22;41095;53.090;6.692;2022-07-22T09:12:06;19.40;99.90
53752;DHT22;41095;53.090;6.692;2022-07-22T09:14:50;19.60;99.90
53752;DHT22;41095;53.090;6.692;2022-07-22T09:17:30;19.80;99.90
53752;DHT22;41095;53.090;6.692;2022-07-22T09:19:59;19.90;99.90
53752;DHT22;41095;53.090;6.692;2022-07-22T09:22:43;20.00;99.90
53752;DHT22;41095;53.090;6.692;2022-07-22T09:27:49;20.00;99.90
53752;DHT22;41095;53.090;6.692;2022-07-22T09:30:20;19.90;99.90
53752;DHT22;41095;53.090;6.692;2022-07-22T09:32:47;19.90;99.90
53752;DHT22;41095;53.090;6.692;2022-07-22T09:35:14;19.60;99.90
53752;DHT22;41095;53.090;6.692;2022-07-22T09:40:24;19.30;99.90
53752;DHT22;41095;53.090;6.692;2022-07-22T09:42:52;19.30;99.90
53752;DHT22;41095;53.090;6.692;2022-07-22T09:45:20;19.30;99.90
53752;DHT22;41095;53.090;6.692;2022-07-22T09:47:46;19.30;99.90
53752;DHT22;41095;53.090;6.692;2022-07-22T09:50:38;19.20;99.90
53752;DHT22;41095;53.090;6.692;2022-07-22T09:53:04;19.20;99.90
53752;DHT22;41095;53.090;6.692;2022-07-22T09:55:30;19.20;99.90
53752;DHT22;41095;53.090;6.692;2022-07-22T09:57:57;18.90;99.90
53752;DHT22;41095;53.090;6.692;2022-07-22T10:00:27;18.90;99.90
53752;DHT22;41095;53.090;6.692;2022-07-22T10:02:58;18.80;99.90
53752;DHT22;41095;53.090;6.692;2022-07-22T10:05:30;18.80;99.90
53752;DHT22;41095;53.090;6.692;2022-07-22T10:07:57;18.70;99.90
53752;DHT22;41095;53.090;6.692;2022-07-22T10:10:24;18.70;99.90
53752;DHT22;41095;53.090;6.692;2022-07-22T10:12:54;18.70;99.90
53752;DHT22;41095;53.090;6.692;2022-07-22T10:15:20;18.90;99.90
53752;DHT22;41095;53.090;6.692;2022-07-22T10:17:48;19.00;99.90
53752;DHT22;41095;53.090;6.692;2022-07-22T10:20:24;18.90;99.90
53752;DHT22;41095;53.090;6.692;2022-07-22T10:22:59;19.00;99.90
53752;DHT22;41095;53.090;6.692;2022-07-22T10:25:28;19.10;99.90
53752;DHT22;41095;53.090;6.692;2022-07-22T10:28:04;19.20;99.90
53752;DHT22;41095;53.090;6.692;2022-07-22T10:30:35;19.20;99.90
53752;DHT22;41095;53.090;6.692;2022-07-22T10:33:13;19.20;99.90
53752;DHT22;41095;53.090;6.692;2022-07-22T10:36:01;19.10;99.90
53752;DHT22;41095;53.090;6.692;2022-07-22T10:38:29;19.20;99.90
53752;DHT22;41095;53.090;6.692;2022-07-22T10:41:00;19.20;99.90
53752;DHT22;41095;53.090;6.692;2022-07-22T10:43:27;19.30;99.90
53752;DHT22;41095;53.090;6.692;2022-07-22T10:46:02;19.30;99.90
53752;DHT22;41095;53.090;6.692;2022-07-22T10:51:21;19.50;99.90
53752;DHT22;41095;53.090;6.692;2022-07-22T10:53:54;19.40;99.90
53752;DHT22;41095;53.090;6.692;2022-07-22T10:56:26;19.40;99.90
53752;DHT22;41095;53.090;6.692;2022-07-22T11:01:40;19.60;99.90
53752;DHT22;41095;53.090;6.692;2022-07-22T11:04:16;19.60;99.90
53752;DHT22;41095;53.090;6.692;2022-07-22T11:06:43;19.80;99.90
53752;DHT22;41095;53.090;6.692;2022-07-22T11:09:11;19.80;99.90
53752;DHT22;41095;53.090;6.692;2022-07-22T11:11:49;20.00;99.90
53752;DHT22;41095;53.090;6.692;2022-07-22T11:14:38;20.10;99.90
53752;DHT22;41095;53.090;6.692;2022-07-22T11:17:05;20.40;99.90
53752;DHT22;41095;53.090;6.692;2022-07-22T11:19:32;20.60;99.90
53752;DHT22;41095;53.090;6.692;2022-07-22T11:22:01;20.60;99.90
53752;DHT22;41095;53.090;6.692;2022-07-22T11:24:29;20.90;99.90
53752;DHT22;41095;53.090;6.692;2022-07-22T11:26:57;20.80;99.90
53752;DHT22;41095;53.090;6.692;2022-07-22T11:31:55;21.00;99.90
53752;DHT22;41095;53.090;6.692;2022-07-22T11:34:21;21.00;99.90
53752;DHT22;41095;53.090;6.692;2022-07-22T11:36:48;21.00;99.90
53752;DHT22;41095;53.090;6.692;2022-07-22T11:39:19;20.90;99.90
53752;DHT22;41095;53.090;6.692;2022-07-22T11:41:45;20.70;99.90
53752;DHT22;41095;53.090;6.692;2022-07-22T11:44:11;20.70;99.90
53752;DHT22;41095;53.090;6.692;2022-07-22T11:46:38;20.80;99.90
53752;DHT22;41095;53.090;6.692;2022-07-22T11:49:05;20.70;99.90
53752;DHT22;41095;53.090;6.692;2022-07-22T11:51:32;20.70;99.90
53752;DHT22;41095;53.090;6.692;2022-07-22T11:53:59;20.50;99.90
53752;DHT22;41095;53.090;6.692;2022-07-22T11:56:25;20.50;99.90
53752;DHT22;41095;53.090;6.692;2022-07-22T11:58:52;20.30;99.90
53752;DHT22;41095;53.090;6.692;2022-07-22T12:01:20;20.40;99.90
53752;DHT22;41095;53.090;6.692;2022-07-22T12:03:52;20.50;99.90
53752;DHT22;41095;53.090;6.692;2022-07-22T12:06:20;20.70;99.90
53752;DHT22;41095;53.090;6.692;2022-07-22T12:08:52;20.50;99.90
53752;DHT22;41095;53.090;6.692;2022-07-22T12:11:20;20.60;99.90
53752;DHT22;41095;53.090;6.692;2022-07-22T12:13:48;20.70;99.90
53752;DHT22;41095;53.090;6.692;2022-07-22T12:16:27;20.80;99.90
53752;DHT22;41095;53.090;6.692;2022-07-22T12:18:58;20.80;99.90
53752;DHT22;41095;53.090;6.692;2022-07-22T12:21:26;20.70;99.90
53752;DHT22;41095;53.090;6.692;2022-07-22T12:36:56;20.70;99.90
53752;DHT22;41095;53.090;6.692;2022-07-22T12:39:22;20.90;99.90
53752;DHT22;41095;53.090;6.692;2022-07-22T12:41:51;20.80;99.90
53752;DHT22;41095;53.090;6.692;2022-07-22T12:44:21;20.80;99.90
53752;DHT22;41095;53.090;6.692;2022-07-22T12:46:49;20.90;99.90
53752;DHT22;41095;53.090;6.692;2022-07-22T12:49:16;20.90;99.90
53752;DHT22;41095;53.090;6.692;2022-07-22T12:54:35;21.10;97.90
53752;DHT22;41095;53.090;6.692;2022-07-22T12:57:02;21.20;99.90
53752;DHT22;41095;53.090;6.692;2022-07-22T12:59:28;21.40;99.90
53752;DHT22;41095;53.090;6.692;2022-07-22T13:01:53;21.50;99.90
53752;DHT22;41095;53.090;6.692;2022-07-22T13:04:19;21.70;99.90
53752;DHT22;41095;53.090;6.692;2022-07-22T13:06:45;21.60;99.60
53752;DHT22;41095;53.090;6.692;2022-07-22T13:09:10;21.80;99.90
53752;DHT22;41095;53.090;6.692;2022-07-22T13:11:36;21.90;99.90
53752;DHT22;41095;53.090;6.692;2022-07-22T13:14:05;22.00;99.90
53752;DHT22;41095;53.090;6.692;2022-07-22T13:16:32;22.10;99.90
53752;DHT22;41095;53.090;6.692;2022-07-22T13:18:58;22.20;99.90
53752;DHT22;41095;53.090;6.692;2022-07-22T13:21:24;22.30;99.90
53752;DHT22;41095;53.090;6.692;2022-07-22T13:23:50;22.30;99.90
53752;DHT22;41095;53.090;6.692;2022-07-22T13:26:15;22.20;99.90
53752;DHT22;41095;53.090;6.692;2022-07-22T13:28:41;22.20;99.80
53752;DHT22;41095;53.090;6.692;2022-07-22T13:31:08;22.20;99.70
53752;DHT22;41095;53.090;6.692;2022-07-22T13:33:34;22.20;99.60
53752;DHT22;41095;53.090;6.692;2022-07-22T13:36:03;22.10;98.60
53752;DHT22;41095;53.090;6.692;2022-07-22T13:38:29;22.00;97.90
53752;DHT22;41095;53.090;6.692;2022-07-22T13:40:55;22.00;98.60
53752;DHT22;41095;53.090;6.692;2022-07-22T13:43:23;21.90;98.70
53752;DHT22;41095;53.090;6.692;2022-07-22T13:45:49;21.80;98.90
53752;DHT22;41095;53.090;6.692;2022-07-22T13:48:15;21.60;97.70
53752;DHT22;41095;53.090;6.692;2022-07-22T13:50:43;21.60;98.20
53752;DHT22;41095;53.090;6.692;2022-07-22T13:53:09;21.70;98.90
53752;DHT22;41095;53.090;6.692;2022-07-22T13:55:34;21.70;98.70
53752;DHT22;41095;53.090;6.692;2022-07-22T13:58:02;21.60;98.60
53752;DHT22;41095;53.090;6.692;2022-07-22T14:00:28;21.60;98.70
53752;DHT22;41095;53.090;6.692;2022-07-22T14:02:54;21.60;98.60
53752;DHT22;41095;53.090;6.692;2022-07-22T14:05:19;21.60;98.50
53752;DHT22;41095;53.090;6.692;2022-07-22T14:07:45;21.60;98.90
53752;DHT22;41095;53.090;6.692;2022-07-22T14:10:11;21.60;96.90
53752;DHT22;41095;53.090;6.692;2022-07-22T14:12:37;21.30;97.60
53752;DHT22;41095;53.090;6.692;2022-07-22T14:15:03;21.30;98.40
53752;DHT22;41095;53.090;6.692;2022-07-22T14:17:29;21.30;98.60
53752;DHT22;41095;53.090;6.692;2022-07-22T14:19:54;21.20;99.30
53752;DHT22;41095;53.090;6.692;2022-07-22T14:22:20;21.20;99.60
53752;DHT22;41095;53.090;6.692;2022-07-22T14:24:46;21.20;99.60
53752;DHT22;41095;53.090;6.692;2022-07-22T14:27:12;21.10;99.30
53752;DHT22;41095;53.090;6.692;2022-07-22T14:29:39;21.10;98.80
53752;DHT22;41095;53.090;6.692;2022-07-22T14:32:05;21.10;99.30
53752;DHT22;41095;53.090;6.692;2022-07-22T14:34:30;21.10;99.40
53752;DHT22;41095;53.090;6.692;2022-07-22T14:36:56;21.10;99.90
53752;DHT22;41095;53.090;6.692;2022-07-22T14:39:22;21.20;99.10
53752;DHT22;41095;53.090;6.692;2022-07-22T14:41:47;21.30;99.90
53752;DHT22;41095;53.090;6.692;2022-07-22T14:44:14;21.40;99.90
53752;DHT22;41095;53.090;6.692;2022-07-22T14:46:39;21.40;99.50
53752;DHT22;41095;53.090;6.692;2022-07-22T14:49:05;21.50;98.70
53752;DHT22;41095;53.090;6.692;2022-07-22T14:51:31;21.40;98.20
53752;DHT22;41095;53.090;6.692;2022-07-22T14:53:57;21.10;99.30
53752;DHT22;41095;53.090;6.692;2022-07-22T14:56:22;20.80;99.90
53752;DHT22;41095;53.090;6.692;2022-07-22T14:58:48;20.70;99.90
53752;DHT22;41095;53.090;6.692;2022-07-22T15:01:14;20.50;99.90
53752;DHT22;41095;53.090;6.692;2022-07-22T15:03:40;20.40;99.90
53752;DHT22;41095;53.090;6.692;2022-07-22T15:06:05;20.30;99.90
53752;DHT22;41095;53.090;6.692;2022-07-22T15:08:31;20.30;99.90
53752;DHT22;41095;53.090;6.692;2022-07-22T15:10:57;20.20;99.90
53752;DHT22;41095;53.090;6.692;2022-07-22T15:13:25;20.10;99.90
53752;DHT22;41095;53.090;6.692;2022-07-22T15:15:51;20.10;99.90
53752;DHT22;41095;53.090;6.692;2022-07-22T15:18:16;20.10;99.90
53752;DHT22;41095;53.090;6.692;2022-07-22T15:20:42;19.90;99.90
53752;DHT22;41095;53.090;6.692;2022-07-22T15:23:08;19.70;99.90
53752;DHT22;41095;53.090;6.692;2022-07-22T15:25:34;19.70;99.90
53752;DHT22;41095;53.090;6.692;2022-07-22T15:28:00;19.70;99.90
53752;DHT22;41095;53.090;6.692;2022-07-22T15:30:26;19.70;99.90
53752;DHT22;41095;53.090;6.692;2022-07-22T15:32:52;19.70;99.90
53752;DHT22;41095;53.090;6.692;2022-07-22T15:35:17;19.50;99.90
53752;DHT22;41095;53.090;6.692;2022-07-22T15:37:43;19.50;99.90
53752;DHT22;41095;53.090;6.692;2022-07-22T15:40:10;19.30;99.90
53752;DHT22;41095;53.090;6.692;2022-07-22T15:42:37;19.30;99.90
53752;DHT22;41095;53.090;6.692;2022-07-22T15:45:04;19.40;99.90
53752;DHT22;41095;53.090;6.692;2022-07-22T15:47:30;19.40;99.90
53752;DHT22;41095;53.090;6.692;2022-07-22T15:49:56;19.20;99.90
53752;DHT22;41095;53.090;6.692;2022-07-22T15:52:22;19.20;99.90
53752;DHT22;41095;53.090;6.692;2022-07-22T15:54:47;19.10;99.90
53752;DHT22;41095;53.090;6.692;2022-07-22T15:57:13;19.20;99.90
53752;DHT22;41095;53.090;6.692;2022-07-22T15:59:58;19.20;99.90